Time;durP1;ratioP1;P1;durP2;ratioP2;P2;SDS_P1;SDS_P2;PMS_P1;PMS_P2;Temp;Humidity;BMP_temperature;BMP_pressure;BME280_temperature;BME280_humidity;BME280_pressure;Samples;Min_cycle;Max_cycle;Signal;HPM_P1;HPM_P2
2024/03/16 00:01:30;;;;;;;46.05;20.25;;;;;;;3.13;100.00;97777.19;4959105;28;20483;-74
2024/03/16 00:04:05;;;;;;;39.03;19.35;;;;;;;3.05;100.00;97773.00;4964782;28;20030;-74
2024/03/16 00:06:51;;;;;;;38.45;17.90;;;;;;;2.84;100.00;97768.34;4937155;28;20039;-73
2024/03/16 00:09:38;;;;;;;43.03;17.83;;;;;;;2.90;100.00;97766.41;4970712;28;20046;-74
2024/03/16 00:12:06;;;;;;;38.90;18.95;;;;;;;2.90;100.00;97770.81;4942895;28;20045;-74
2024/03/16 00:14:40;;;;;;;38.67;18.65;;;;;;;2.94;100.00;97781.25;4970369;28;20471;-74
2024/03/16 00:17:06;;;;;;;39.20;18.35;;;;;;;2.92;100.00;97774.28;4966552;28;20043;-75
2024/03/16 00:19:45;;;;;;;40.42;17.95;;;;;;;2.93;100.00;97779.53;4954165;28;20046;-74
2024/03/16 00:22:22;;;;;;;38.55;17.42;;;;;;;2.82;100.00;97765.75;4963286;28;20543;-74
2024/03/16 00:25:17;;;;;;;40.58;17.38;;;;;;;2.85;100.00;97773.59;4949252;28;20023;-74
2024/03/16 00:27:49;;;;;;;35.17;17.70;;;;;;;2.88;100.00;97770.00;4957511;28;20469;-74
2024/03/16 00:30:40;;;;;;;29.40;13.32;;;;;;;2.91;100.00;97769.91;4936080;28;20034;-74
2024/03/16 00:33:09;;;;;;;38.08;15.82;;;;;;;2.74;100.00;97773.00;4966655;28;20038;-74
2024/03/16 00:35:43;;;;;;;31.95;14.95;;;;;;;2.64;100.00;97763.63;4969937;28;20048;-74
2024/03/16 00:38:21;;;;;;;32.63;16.20;;;;;;;2.64;100.00;97766.28;4966220;28;20026;-73
2024/03/16 00:40:56;;;;;;;34.28;16.42;;;;;;;2.73;100.00;97777.44;4955950;28;20093;-74
2024/03/16 00:43:26;;;;;;;45.15;17.85;;;;;;;2.73;100.00;97777.44;4950395;28;20116;-74
2024/03/16 00:46:01;;;;;;;33.65;15.30;;;;;;;2.65;100.00;97763.56;4952500;28;20106;-74
2024/03/16 00:48:58;;;;;;;39.42;16.23;;;;;;;2.64;100.00;97768.91;4943055;29;20039;-73
2024/03/16 00:51:24;;;;;;;33.67;14.65;;;;;;;2.56;100.00;97769.09;4929929;29;20059;-72
2024/03/16 00:54:16;;;;;;;31.65;15.10;;;;;;;2.56;100.00;97768.22;4959692;28;20038;-74
2024/03/16 00:56:48;;;;;;;42.70;17.45;;;;;;;2.54;100.00;97763.00;4947300;28;20074;-74
2024/03/16 00:59:37;;;;;;;36.03;16.67;;;;;;;2.55;100.00;97775.28;4952328;28;20130;-75
2024/03/16 01:02:11;;;;;;;32.80;14.52;;;;;;;2.56;100.00;97763.81;4951559;28;20042;-74
2024/03/16 01:05:06;;;;;;;31.88;14.73;;;;;;;2.47;100.00;97769.34;4959237;28;20054;-74
2024/03/16 01:07:54;;;;;;;33.45;13.88;;;;;;;2.35;100.00;97759.13;4964215;28;20038;-76
2024/03/16 01:10:34;;;;;;;31.48;14.75;;;;;;;2.47;100.00;97768.47;4973462;28;20504;-75
2024/03/16 01:13:10;;;;;;;31.58;14.90;;;;;;;2.47;100.00;97764.06;4962432;28;20110;-74
2024/03/16 01:15:52;;;;;;;29.15;14.77;;;;;;;2.32;100.00;97759.19;4966988;28;20395;-73
2024/03/16 01:18:18;;;;;;;29.55;13.40;;;;;;;2.33;100.00;97760.94;4948205;28;20121;-75
2024/03/16 01:20:52;;;;;;;32.88;15.32;;;;;;;2.28;100.00;97757.53;4954019;28;20095;-73
2024/03/16 01:23:38;;;;;;;33.30;14.38;;;;;;;2.32;100.00;97766.25;4959546;28;20027;-74
2024/03/16 01:26:18;;;;;;;31.50;15.40;;;;;;;2.40;100.00;97769.56;4938271;29;20065;-75
2024/03/16 01:28:47;;;;;;;31.92;14.68;;;;;;;2.45;100.00;97765.91;4973461;28;20114;-73
2024/03/16 01:31:29;;;;;;;33.67;15.25;;;;;;;2.41;100.00;97761.59;4965273;28;20026;-74
2024/03/16 01:33:58;;;;;;;31.00;15.00;;;;;;;2.39;100.00;97768.69;4959344;28;20078;-73
2024/03/16 01:37:03;;;;;;;32.22;15.43;;;;;;;2.41;100.00;97774.78;4963572;28;20160;-73
2024/03/16 01:39:31;;;;;;;33.28;13.75;;;;;;;2.35;100.00;97769.66;4950155;28;20476;-74
2024/03/16 01:42:06;;;;;;;39.90;17.00;;;;;;;2.39;100.00;97770.47;4967025;28;20030;-74
2024/03/16 01:44:55;;;;;;;47.47;17.23;;;;;;;2.40;100.00;97769.56;4964292;28;20407;-73
2024/03/16 01:47:33;;;;;;;;;;;;;;;;;;;;;
2024/03/16 01:50:04;;;;;;;94.55;19.17;;;;;;;2.41;100.00;97764.22;4959609;28;20029;-74
2024/03/16 01:52:51;;;;;;;71.03;20.60;;;;;;;2.49;100.00;97771.97;4964856;28;20031;-74
2024/03/16 01:55:29;;;;;;;53.78;20.10;;;;;;;2.43;100.00;97769.47;4956548;28;20058;-73
2024/03/16 01:58:06;;;;;;;74.93;19.45;;;;;;;2.44;100.00;97777.34;4940142;29;20499;-73
2024/03/16 02:00:53;;;;;;;66.47;20.15;;;;;;;2.39;100.00;97771.34;4953738;28;20431;-74
2024/03/16 02:03:27;;;;;;;89.85;24.42;;;;;;;2.53;100.00;97781.50;4947697;28;20416;-73
2024/03/16 02:06:02;;;;;;;74.75;20.05;;;;;;;2.45;100.00;97765.91;4945476;28;20101;-74
2024/03/16 02:08:30;;;;;;;60.80;20.33;;;;;;;2.49;100.00;97775.44;4949249;28;20162;-74
2024/03/16 02:11:14;;;;;;;144.35;22.42;;;;;;;2.49;100.00;97771.97;4955904;28;20122;-73
2024/03/16 02:13:52;;;;;;;143.35;23.13;;;;;;;2.40;100.00;97778.31;4959062;28;20039;-74
2024/03/16 02:16:20;;;;;;;77.15;21.40;;;;;;;2.33;100.00;97775.91;4952668;28;20110;-73
2024/03/16 02:18:52;;;;;;;84.95;23.90;;;;;;;2.29;100.00;97769.84;4959036;28;20034;-73
2024/03/16 02:21:38;;;;;;;67.47;23.47;;;;;;;2.33;100.00;97776.78;4972402;28;20034;-75
2024/03/16 02:24:03;;;;;;;61.00;23.92;;;;;;;2.37;100.00;97781.03;4972249;28;20274;-75
2024/03/16 02:26:31;;;;;;;58.35;24.85;;;;;;;2.35;100.00;97782.00;4947868;28;20065;-74
2024/03/16 02:29:07;;;;;;;55.03;23.92;;;;;;;2.37;100.00;97785.47;4958225;28;20527;-74
2024/03/16 02:31:36;;;;;;;60.80;22.55;;;;;;;2.29;100.00;97785.66;4967675;28;20030;-73
2024/03/16 02:34:02;;;;;;;56.63;24.17;;;;;;;2.25;100.00;97798.97;4956328;28;20114;-73
2024/03/16 02:36:32;;;;;;;57.05;23.20;;;;;;;2.25;100.00;97797.19;4944519;28;20035;-73
2024/03/16 02:39:10;;;;;;;63.20;25.20;;;;;;;2.12;100.00;97793.16;4951816;28;20027;-74
2024/03/16 02:41:42;;;;;;;73.57;23.63;;;;;;;2.02;100.00;97796.91;4948151;28;20035;-74
2024/03/16 02:44:10;;;;;;;75.33;24.77;;;;;;;2.01;100.00;97808.34;4953813;28;20104;-74
2024/03/16 02:46:38;;;;;;;69.82;26.40;;;;;;;1.88;100.00;97797.22;4965062;28;20068;-74
2024/03/16 02:49:32;;;;;;;67.03;24.98;;;;;;;1.86;100.00;97798.16;4972944;28;20037;-73
2024/03/16 02:52:08;;;;;;;100.28;26.33;;;;;;;1.66;100.00;97793.38;4965239;28;20070;-73
2024/03/16 02:54:40;;;;;;;62.22;24.60;;;;;;;1.70;100.00;97808.19;4953677;28;20034;-73
2024/03/16 02:57:24;;;;;;;69.82;22.90;;;;;;;1.57;100.00;97804.97;4964489;28;20454;-73
2024/03/16 02:59:58;;;;;;;107.35;24.40;;;;;;;1.59;100.00;97812.84;4957454;28;20066;-73
2024/03/16 03:02:32;;;;;;;97.45;24.55;;;;;;;1.52;100.00;97814.75;4945834;28;20427;-73
2024/03/16 03:05:09;;;;;;;84.13;23.58;;;;;;;1.46;100.00;97812.25;4955037;28;20418;-74
2024/03/16 03:07:38;;;;;;;73.28;22.13;;;;;;;1.44;100.00;97823.75;4962950;28;20031;-74
2024/03/16 03:10:14;;;;;;;96.28;22.83;;;;;;;1.36;100.00;97809.84;4961448;28;20030;-73
2024/03/16 03:12:40;;;;;;;89.28;23.58;;;;;;;1.44;100.00;97821.97;4957187;28;20027;-73
2024/03/16 03:15:09;;;;;;;87.78;23.75;;;;;;;1.47;100.00;97823.69;4968213;28;20034;-74
2024/03/16 03:17:38;;;;;;;102.88;23.80;;;;;;;1.47;100.00;97829.81;4952216;28;20031;-74
2024/03/16 03:20:14;;;;;;;118.43;27.80;;;;;;;1.54;100.00;97835.78;4935912;28;20432;-74
2024/03/16 03:22:49;;;;;;;112.78;28.65;;;;;;;1.53;100.00;97820.91;4951833;28;20098;-74
2024/03/16 03:25:18;;;;;;;103.03;30.00;;;;;;;1.52;100.00;97835.84;4943537;28;20031;-74
2024/03/16 03:27:56;;;;;;;121.57;29.20;;;;;;;1.57;100.00;97841.88;4936337;29;20039;-74
2024/03/16 03:30:27;;;;;;;148.23;31.60;;;;;;;1.62;100.00;97837.38;4948852;28;20039;-74
2024/03/16 03:33:00;;;;;;;72.32;27.33;;;;;;;1.64;100.00;97846.13;4971222;28;20034;-73
2024/03/16 03:35:33;;;;;;;70.53;29.05;;;;;;;1.56;100.00;97834.88;4972663;28;20057;-73
2024/03/16 03:38:08;;;;;;;68.10;26.58;;;;;;;1.56;100.00;97832.25;4947509;28;20491;-73
2024/03/16 03:40:36;;;;;;;63.70;26.98;;;;;;;1.60;100.00;97836.53;4959021;28;20038;-72
2024/03/16 03:43:59;;;;;;;77.63;28.48;;;;;;;1.70;100.00;97845.09;4970783;28;20061;-73
2024/03/16 03:49:32;;;;;;;147.88;29.83;;;;;;;1.60;100.00;97849.72;4963053;28;20031;-74
2024/03/16 03:52:09;;;;;;;86.20;28.25;;;;;;;1.69;100.00;97863.63;4954806;28;20479;-73
2024/03/16 03:54:44;;;;;;;72.10;26.52;;;;;;;1.70;100.00;97857.41;4964183;28;20100;-73
2024/03/16 03:57:10;;;;;;;70.95;27.00;;;;;;;1.78;100.00;97855.50;4946998;28;20037;-73
2024/03/16 03:59:51;;;;;;;89.65;28.13;;;;;;;1.76;100.00;97852.00;4970638;28;20051;-74
2024/03/16 04:02:29;;;;;;;58.40;24.38;;;;;;;1.72;100.00;97861.78;4946762;28;20070;-74
2024/03/16 04:05:07;;;;;;;56.20;24.60;;;;;;;1.63;100.00;97851.44;4944776;28;20031;-73
2024/03/16 04:07:38;;;;;;;58.35;23.17;;;;;;;1.60;100.00;97852.34;4945664;28;20526;-73
2024/03/16 04:10:15;;;;;;;64.43;25.60;;;;;;;1.59;100.00;97861.19;4953232;28;20026;-74
2024/03/16 04:13:02;;;;;;;100.25;27.80;;;;;;;1.50;100.00;97858.75;4971941;28;20027;-73
2024/03/16 04:18:26;;;;;;;98.80;26.25;;;;;;;1.54;100.00;97862.16;4966373;28;20065;-73
2024/03/16 04:21:15;;;;;;;68.88;24.73;;;;;;;1.50;100.00;97856.09;4966262;28;20030;-74
2024/03/16 04:23:49;;;;;;;56.92;23.92;;;;;;;1.55;100.00;97861.25;4944937;28;20038;-74
2024/03/16 04:26:17;;;;;;;168.95;28.73;;;;;;;1.58;100.00;97858.56;4963713;28;20118;-73
2024/03/16 04:29:02;;;;;;;112.82;24.58;;;;;;;1.49;100.00;97850.84;4958305;28;20023;-74
2024/03/16 04:31:31;;;;;;;110.15;24.33;;;;;;;1.48;100.00;97859.66;4948136;28;20039;-73
2024/03/16 04:34:07;;;;;;;;;;;;;;;;;;;;;
2024/03/16 04:36:38;;;;;;;60.72;24.27;;;;;;;1.56;100.00;97860.38;4959065;28;20042;-72
2024/03/16 04:39:06;;;;;;;74.03;23.10;;;;;;;1.59;100.00;97855.91;4956563;28;20103;-73
2024/03/16 04:41:51;;;;;;;;;;;;;;;;;;;;;
2024/03/16 04:44:31;;;;;;;113.38;26.38;;;;;;;1.72;100.00;97867.06;4971372;28;20027;-76
2024/03/16 04:46:59;;;;;;;80.70;22.02;;;;;;;1.64;100.00;97867.22;4960111;28;20031;-73
2024/03/16 04:49:39;;;;;;;120.40;23.25;;;;;;;1.67;100.00;97865.41;4957436;28;20095;-74
2024/03/16 04:52:15;;;;;;;;;;;;;;;;;;;;;
2024/03/16 04:54:52;;;;;;;104.35;22.30;;;;;;;1.58;100.00;97863.84;4970930;28;20035;-73
2024/03/16 04:57:30;;;;;;;83.05;21.08;;;;;;;1.72;100.00;97872.31;4952403;28;20034;-74
2024/03/16 05:00:05;;;;;;;73.28;22.05;;;;;;;1.73;100.00;97874.03;4975298;28;20732;-75
2024/03/16 05:02:36;;;;;;;104.78;22.15;;;;;;;1.74;100.00;97880.19;4934650;29;20050;-73
2024/03/16 05:05:15;;;;;;;71.20;21.77;;;;;;;1.76;100.00;97870.47;4962668;28;20040;-74
2024/03/16 05:08:06;;;;;;;117.95;25.23;;;;;;;1.92;100.00;97879.78;4946334;28;20024;-74
2024/03/16 05:11:04;;;;;;;94.82;25.17;;;;;;;1.96;100.00;97873.53;4948951;28;20046;-74
2024/03/16 05:13:39;;;;;;;202.15;27.73;;;;;;;2.01;100.00;97869.00;4971081;28;20023;-74
2024/03/16 05:16:22;;;;;;;112.18;26.30;;;;;;;2.05;100.00;97881.25;4946389;28;20066;-74
2024/03/16 05:18:53;;;;;;;;;;;;;;;2.22;100.00;97888.75;4960807;28;20031;-74
2024/03/16 05:21:21;;;;;;;129.23;21.52;;;;;;;2.15;100.00;97893.31;4973285;28;19969;-74
2024/03/16 05:23:54;;;;;;;73.03;21.38;;;;;;;2.16;100.00;97876.56;4954366;28;20045;-74
2024/03/16 05:26:30;;;;;;;143.35;23.48;;;;;;;1.91;100.00;97872.75;4963075;28;20041;-73
2024/03/16 05:29:07;;;;;;;207.68;25.05;;;;;;;1.97;100.00;97880.56;4955404;28;20027;-74
2024/03/16 05:31:59;;;;;;;163.25;25.45;;;;;;;2.09;100.00;97886.41;4954140;28;20492;-73
2024/03/16 05:34:30;;;;;;;102.50;22.88;;;;;;;2.15;100.00;97872.22;4967338;28;20038;-74
2024/03/16 05:37:03;;;;;;;127.30;24.33;;;;;;;2.35;100.00;97879.66;4944917;28;20037;-74
2024/03/16 05:39:48;;;;;;;108.18;22.45;;;;;;;2.37;100.00;97883.97;4953799;28;20033;-72
2024/03/16 05:42:31;;;;;;;80.65;23.65;;;;;;;2.52;100.00;97886.22;4972241;28;20081;-74
2024/03/16 05:44:58;;;;;;;;;;;;;;;2.59;100.00;97887.81;4964169;28;20038;-75
2024/03/16 05:47:47;;;;;;;71.82;21.15;;;;;;;2.65;100.00;97877.09;4963290;28;19914;-74
2024/03/16 05:50:30;;;;;;;110.93;25.23;;;;;;;2.66;100.00;97881.50;4963613;28;20499;-75
2024/03/16 05:53:03;;;;;;;81.60;21.25;;;;;;;2.66;100.00;97870.94;4963925;28;20104;-75
2024/03/16 05:55:31;;;;;;;124.05;23.98;;;;;;;2.55;100.00;97866.84;4958957;28;20038;-74
2024/03/16 05:57:59;;;;;;;111.90;25.08;;;;;;;2.64;100.00;97867.47;4948921;28;20054;-74
2024/03/16 06:00:37;;;;;;;118.72;24.08;;;;;;;2.87;100.00;97868.63;4964548;28;20102;-73
2024/03/16 06:03:08;;;;;;;205.85;26.75;;;;;;;2.77;100.00;97877.72;4935886;29;20024;-73
2024/03/16 06:05:37;;;;;;;165.05;25.60;;;;;;;2.97;100.00;97885.97;4968441;28;20025;-76
2024/03/16 06:08:11;;;;;;;119.25;27.92;;;;;;;3.04;100.00;97874.34;4953601;28;20041;-75
2024/03/16 06:10:50;;;;;;;84.63;30.83;;;;;;;3.24;100.00;97862.31;4952048;28;20329;-74
2024/03/16 06:13:16;;;;;;;116.00;31.02;;;;;;;3.52;100.00;97874.75;4940292;28;20037;-76
2024/03/16 06:15:43;;;;;;;84.60;28.83;;;;;;;3.67;100.00;97869.88;4948903;28;20023;-73
2024/03/16 06:18:19;;;;;;;69.28;25.55;;;;;;;3.97;100.00;97880.47;4946867;28;20113;-75
2024/03/16 06:21:04;;;;;;;128.52;26.23;;;;;;;4.06;100.00;97882.84;4947369;28;20031;-75
2024/03/16 06:23:40;;;;;;;98.68;25.13;;;;;;;4.22;100.00;97873.47;4955085;28;20073;-75
2024/03/16 06:26:16;;;;;;;50.65;22.80;;;;;;;4.28;100.00;97857.41;4957272;28;20463;-73
2024/03/16 06:29:02;;;;;;;60.58;24.75;;;;;;;4.10;100.00;97852.69;4949818;28;20073;-75
2024/03/16 06:31:38;;;;;;;67.25;24.05;;;;;;;4.10;100.00;97852.69;4956522;28;20035;-73
2024/03/16 06:34:20;;;;;;;81.30;24.35;;;;;;;4.16;100.00;97863.06;4968211;28;20026;-73
2024/03/16 06:36:48;;;;;;;74.47;22.38;;;;;;;4.37;100.00;97857.09;4958921;28;20073;-74
2024/03/16 06:39:24;;;;;;;91.20;21.15;;;;;;;4.63;100.00;97854.47;4943956;28;20050;-73
2024/03/16 06:42:11;;;;;;;43.30;20.15;;;;;;;4.79;100.00;97850.38;4960176;28;20027;-72
2024/03/16 06:44:54;;;;;;;71.63;21.77;;;;;;;4.67;100.00;97837.56;4951359;28;20027;-74
2024/03/16 06:47:36;;;;;;;;;;;;;;;;;;;;;
2024/03/16 06:50:06;;;;;;;47.58;20.55;;;;;;;5.50;100.00;97849.63;4969321;28;20026;-75
2024/03/16 06:52:46;;;;;;;79.47;21.52;;;;;;;5.73;100.00;97846.94;4960889;28;20039;-74
2024/03/16 06:55:38;;;;;;;43.97;19.48;;;;;;;5.86;100.00;97850.91;4968879;28;20031;-75
2024/03/16 06:58:13;;;;;;;64.45;22.42;;;;;;;5.46;100.00;97842.69;4957302;28;20050;-73
2024/03/16 07:00:58;;;;;;;48.25;19.08;;;;;;;5.50;100.00;97851.41;4936433;28;20053;-78
2024/03/16 07:03:32;;;;;;;57.97;18.08;;;;;;;6.22;100.00;97842.41;4959918;28;20117;-76
2024/03/16 07:06:26;;;;;;;36.97;17.33;;;;;;;6.42;100.00;97837.19;4962047;28;20495;-79
2024/03/16 07:09:10;;;;;;;38.20;19.13;;;;;;;7.30;100.00;97836.03;4946894;28;20034;-79
2024/03/16 07:11:40;;;;;;;68.88;22.17;;;;;;;7.85;100.00;97827.28;4940607;28;20201;-79
2024/03/16 07:14:17;;;;;;;40.15;18.80;;;;;;;8.47;100.00;97816.31;4958906;28;20460;-73
2024/03/16 07:16:47;;;;;;;38.60;17.02;;;;;;;8.27;100.00;97818.19;4946829;28;20475;-75
2024/03/16 07:19:18;;;;;;;33.13;17.13;;;;;;;7.84;100.00;97819.38;4964857;28;20047;-76
2024/03/16 07:21:46;;;;;;;30.90;16.58;;;;;;;8.43;100.00;97819.22;4936398;28;20514;-73
2024/03/16 07:24:15;;;;;;;34.22;17.55;;;;;;;8.56;100.00;97809.66;4959644;28;20034;-73
2024/03/16 07:26:45;;;;;;;34.53;16.77;;;;;;;8.64;100.00;97813.66;4961439;28;20461;-83
2024/03/16 07:29:40;;;;;;;65.55;34.80;;;;;;;8.50;100.00;97826.81;4956337;28;20042;-88
2024/03/16 07:32:09;;;;;;;35.78;18.77;;;;;;;9.52;100.00;97814.41;4932317;28;20043;-85
2024/03/16 07:34:40;;;;;;;33.60;16.00;;;;;;;10.41;100.00;97799.69;4945337;28;20027;-73
2024/03/16 07:37:14;;;;;;;28.13;15.30;;;;;;;10.34;100.00;97800.03;4959305;28;20130;-73
2024/03/16 07:39:43;;;;;;;51.50;27.58;;;;;;;9.99;100.00;97814.50;4967981;28;20043;-73
2024/03/16 07:42:29;;;;;;;29.60;16.33;;;;;;;10.65;100.00;97804.50;4958434;28;20035;-74
2024/03/16 07:44:55;;;;;;;28.75;16.90;;;;;;;11.13;100.00;97795.38;4948723;28;20031;-73
2024/03/16 07:47:25;;;;;;;29.88;16.30;;;;;;;12.50;100.00;97785.75;4948634;28;20030;-72
2024/03/16 07:49:59;;;;;;;32.42;15.77;;;;;;;13.74;100.00;97778.16;4949600;28;20120;-73
2024/03/16 07:52:27;;;;;;;28.33;15.70;;;;;;;15.55;89.94;97767.19;4948749;28;20027;-73
2024/03/16 07:55:00;;;;;;;25.58;15.40;;;;;;;16.32;77.52;97749.28;4949594;28;20538;-73
2024/03/16 07:57:28;;;;;;;29.70;17.48;;;;;;;16.58;70.97;97748.00;4949801;28;20038;-72
2024/03/16 08:00:14;;;;;;;32.03;17.33;;;;;;;15.77;74.21;97757.41;4949312;28;20126;-73
2024/03/16 08:02:46;;;;;;;48.55;18.65;;;;;;;16.85;67.91;97742.16;4948918;28;20062;-73
2024/03/16 08:05:14;;;;;;;36.65;19.05;;;;;;;16.94;66.91;97737.81;4947326;28;20035;-73
2024/03/16 08:07:49;;;;;;;39.72;20.23;;;;;;;17.95;62.15;97736.22;4948263;28;20043;-72
2024/03/16 08:10:38;;;;;;;33.90;21.70;;;;;;;18.73;58.00;97718.22;4949054;28;20511;-73
2024/03/16 08:13:09;;;;;;;41.65;26.35;;;;;;;19.23;55.06;97712.63;4948068;28;20035;-73
2024/03/16 08:15:45;;;;;;;45.80;27.23;;;;;;;18.03;60.48;97730.97;4949673;28;20031;-73
2024/03/16 08:18:38;;;;;;;42.13;25.75;;;;;;;18.12;62.45;97727.47;4959088;28;20022;-73
2024/03/16 08:21:16;;;;;;;47.28;25.52;;;;;;;18.74;60.85;97728.06;4965045;28;20034;-72
2024/03/16 08:23:48;;;;;;;38.03;23.38;;;;;;;18.73;59.81;97726.34;4969220;28;20022;-72
2024/03/16 08:26:23;;;;;;;35.65;20.75;;;;;;;19.33;57.31;97708.06;4968493;28;20030;-72
2024/03/16 08:29:18;;;;;;;;;;;;;;;;;;;;;
2024/03/16 08:31:47;;;;;;;31.80;18.70;;;;;;;20.41;54.14;97706.56;4967622;28;20037;-73
2024/03/16 08:34:23;;;;;;;28.65;17.27;;;;;;;20.12;53.06;97711.28;4968047;28;20046;-73
2024/03/16 08:36:51;;;;;;;30.67;17.98;;;;;;;20.41;53.17;97706.56;4953556;28;20427;-72
2024/03/16 08:39:20;;;;;;;23.73;15.52;;;;;;;19.42;53.25;97708.06;4949487;28;20110;-73
2024/03/16 08:41:52;;;;;;;27.30;14.70;;;;;;;19.20;54.81;97702.06;4948543;28;20042;-71
2024/03/16 08:44:37;;;;;;;26.80;15.07;;;;;;;19.88;52.64;97699.06;4930266;28;20043;-72
2024/03/16 08:47:07;;;;;;;25.48;14.05;;;;;;;21.11;50.81;97696.75;4948260;28;20581;-73
2024/03/16 08:49:35;;;;;;;22.75;13.65;;;;;;;19.87;51.78;97696.53;4958163;28;20053;-72
2024/03/16 08:52:04;;;;;;;64.57;41.13;;;;;;;20.43;49.57;97690.94;4967469;28;20121;-72
2024/03/16 08:54:32;;;;;;;22.70;12.50;;;;;;;20.37;48.91;97683.41;4966970;28;20031;-72
2024/03/16 08:57:04;;;;;;;23.33;13.77;;;;;;;19.81;51.28;97692.50;4951255;28;20480;-72
2024/03/16 08:59:32;;;;;;;21.02;12.15;;;;;;;20.97;48.39;97677.25;4967866;28;20054;-73
2024/03/16 09:02:00;;;;;;;22.23;13.40;;;;;;;21.93;46.90;97670.81;4968597;28;20034;-71
2024/03/16 09:04:33;;;;;;;15.68;11.43;;;;;;;22.67;45.43;97670.13;4967088;28;20518;-72
2024/03/16 09:07:04;;;;;;;14.23;9.93;;;;;;;21.69;45.10;97662.50;4968251;28;20038;-74
2024/03/16 09:17:38;;;;;;;17.67;9.77;;;;;;;23.49;43.14;97644.59;4948763;28;20113;-72
2024/03/16 09:20:17;;;;;;;15.75;9.93;;;;;;;23.13;42.95;97646.81;4947500;28;20050;-72
2024/03/16 09:22:52;;;;;;;16.02;10.38;;;;;;;23.60;42.41;97646.94;4951585;28;20503;-72
2024/03/16 09:25:55;;;;;;;;;;;;;;;;;;;;;
2024/03/16 09:31:16;;;;;;;14.70;7.38;;;;;;;24.08;40.33;97637.75;4951021;28;20023;-72
2024/03/16 09:33:53;;;;;;;17.77;8.95;;;;;;;23.39;40.59;97636.56;4951077;28;20476;-71
2024/03/16 09:36:24;;;;;;;12.52;8.68;;;;;;;22.58;41.97;97638.34;4951048;28;20042;-72
2024/03/16 09:39:07;;;;;;;23.20;11.02;;;;;;;22.34;41.88;97635.56;4934641;28;20035;-72
2024/03/16 09:41:53;;;;;;;10.32;7.25;;;;;;;22.99;41.82;97637.41;4935544;28;20042;-74
2024/03/16 09:44:19;;;;;;;11.48;7.60;;;;;;;23.73;41.90;97626.25;4934581;28;20495;-73
2024/03/16 09:46:52;;;;;;;12.82;8.57;;;;;;;23.03;41.46;97636.06;4950564;28;20089;-71
2024/03/16 09:49:30;;;;;;;15.82;8.05;;;;;;;23.71;41.99;97632.94;4952102;28;20041;-73
2024/03/16 09:52:17;;;;;;;9.07;6.82;;;;;;;24.39;40.35;97632.34;4950577;28;20570;-73
2024/03/16 09:54:57;;;;;;;17.17;10.88;;;;;;;25.68;39.06;97623.16;4950565;28;20035;-72
2024/03/16 09:57:52;;;;;;;10.60;6.47;;;;;;;25.98;37.37;97604.81;4950780;28;20138;-72
2024/03/16 10:00:27;;;;;;;9.68;6.53;;;;;;;26.56;36.25;97602.00;4951991;28;20047;-73
2024/03/16 10:03:02;;;;;;;12.07;6.63;;;;;;;24.13;38.07;97608.88;4950373;28;20586;-73
2024/03/16 10:05:36;;;;;;;8.23;5.78;;;;;;;23.18;40.43;97623.44;4950601;28;20038;-74
2024/03/16 10:08:20;;;;;;;9.98;6.10;;;;;;;23.21;40.93;97623.09;4950219;28;20039;-73
2024/03/16 10:11:15;;;;;;;9.60;6.22;;;;;;;22.47;42.38;97625.03;4950206;28;20049;-71
2024/03/16 10:14:04;;;;;;;7.22;5.15;;;;;;;24.21;39.45;97614.31;4951854;28;20114;-74
2024/03/16 10:16:43;;;;;;;7.22;5.10;;;;;;;24.51;38.46;97614.50;4951322;28;20168;-73
2024/03/16 10:19:17;;;;;;;7.43;5.13;;;;;;;22.25;41.71;97617.47;4950563;28;20023;-73
2024/03/16 10:21:49;;;;;;;9.20;5.28;;;;;;;22.52;41.52;97607.16;4961831;28;20042;-73
2024/03/16 10:24:20;;;;;;;9.95;5.47;;;;;;;24.72;39.60;97606.50;4967248;28;20027;-74
2024/03/16 10:26:48;;;;;;;8.48;5.05;;;;;;;25.47;36.93;97593.69;4952681;28;20039;-72
2024/03/16 10:29:35;;;;;;;8.48;5.07;;;;;;;26.24;36.49;97589.56;4952250;28;20122;-74
2024/03/16 10:32:12;;;;;;;7.90;5.20;;;;;;;26.89;35.56;97589.50;4952527;28;20518;-72
2024/03/16 10:34:42;;;;;;;7.22;4.40;;;;;;;25.80;36.28;97591.50;4937398;28;20045;-73
2024/03/16 10:37:10;;;;;;;6.03;4.35;;;;;;;25.34;36.80;97580.66;4953011;28;20427;-74
2024/03/16 10:39:46;;;;;;;5.90;4.28;;;;;;;26.31;35.80;97579.53;4936742;28;20027;-71
2024/03/16 10:42:15;;;;;;;8.32;4.70;;;;;;;27.99;33.98;97571.34;4953021;28;20054;-73
2024/03/16 10:44:59;;;;;;;5.72;4.35;;;;;;;29.31;32.07;97569.03;4936441;28;20074;-74
2024/03/16 10:47:30;;;;;;;6.32;4.30;;;;;;;28.80;32.69;97555.78;4953969;28;20423;-73
2024/03/16 10:49:58;;;;;;;7.72;5.10;;;;;;;29.07;32.17;97564.09;4953676;28;20028;-72
2024/03/16 10:52:35;;;;;;;6.13;4.40;;;;;;;29.08;31.87;97555.63;4936568;29;20069;-74
2024/03/16 10:55:07;;;;;;;6.47;4.43;;;;;;;28.18;32.23;97550.50;4953932;28;20090;-73
2024/03/16 10:57:43;;;;;;;8.05;4.60;;;;;;;26.99;33.32;97553.47;4959009;28;20483;-73
2024/03/16 11:00:44;;;;;;;6.25;4.70;;;;;;;25.38;35.43;97563.84;4967826;28;20512;-73
2024/03/16 11:03:32;;;;;;;6.75;5.18;;;;;;;25.91;34.99;97554.50;4952036;28;20125;-73
2024/03/16 11:06:11;;;;;;;6.07;4.47;;;;;;;24.56;36.41;97558.22;4938148;28;20043;-73
2024/03/16 11:08:45;;;;;;;6.18;4.70;;;;;;;23.41;38.10;97554.50;4952140;28;20027;-72
2024/03/16 11:11:19;;;;;;;7.35;4.97;;;;;;;23.21;39.22;97554.84;4953216;28;20164;-72
2024/03/16 11:14:11;;;;;;;5.35;4.10;;;;;;;23.75;38.61;97555.03;4953068;28;20038;-71
2024/03/16 11:16:50;;;;;;;5.70;4.65;;;;;;;23.10;38.49;97554.34;4951968;28;20038;-72
2024/03/16 11:19:22;;;;;;;6.03;4.43;;;;;;;23.65;37.50;97546.22;4947833;28;20034;-72
2024/03/16 11:22:09;;;;;;;7.35;4.75;;;;;;;23.92;37.01;97548.50;4971034;28;20070;-73
2024/03/16 11:24:58;;;;;;;8.48;4.43;;;;;;;23.12;37.98;97542.25;4971219;28;20050;-72
2024/03/16 11:27:26;;;;;;;6.85;4.53;;;;;;;22.39;38.81;97540.53;4972262;28;20033;-72
2024/03/16 11:30:08;;;;;;;5.88;4.82;;;;;;;21.57;39.97;97546.72;4946684;28;20372;-73
2024/03/16 11:32:56;;;;;;;31.00;17.38;;;;;;;21.45;40.12;97527.09;4952958;28;20034;-73
2024/03/16 11:35:29;;;;;;;6.40;4.90;;;;;;;22.30;38.94;97525.19;4933942;29;20138;-73
2024/03/16 11:37:54;;;;;;;8.50;5.50;;;;;;;23.05;37.80;97526.72;4969230;28;20080;-73
2024/03/16 11:40:36;;;;;;;6.28;4.88;;;;;;;23.94;36.76;97524.56;4965515;28;20023;-73
2024/03/16 11:43:08;;;;;;;6.28;4.22;;;;;;;23.78;37.66;97518.34;4952678;28;20159;-74
2024/03/16 11:45:41;;;;;;;7.43;4.32;;;;;;;22.92;37.61;97515.47;4950806;28;20513;-73
2024/03/16 11:48:25;;;;;;;8.32;4.63;;;;;;;23.98;37.08;97509.50;4952662;28;20033;-73
2024/03/16 11:50:53;;;;;;;9.63;5.75;;;;;;;25.45;34.45;97499.03;4959996;28;20038;-73
2024/03/16 11:53:32;;;;;;;5.65;4.15;;;;;;;26.33;34.68;97499.81;4971483;28;20489;-72
2024/03/16 11:56:02;;;;;;;6.10;4.00;;;;;;;26.57;33.99;97496.69;4970549;28;20023;-73
2024/03/16 11:58:31;;;;;;;7.63;4.70;;;;;;;26.24;34.03;97496.31;4970589;28;20074;-72
2024/03/16 12:01:00;;;;;;;6.40;4.57;;;;;;;25.50;34.47;97489.25;4970325;28;20058;-73
2024/03/16 12:03:44;;;;;;;7.90;5.28;;;;;;;24.87;35.31;97489.75;4970691;28;20074;-72
2024/03/16 12:06:12;;;;;;;7.53;5.75;;;;;;;23.53;37.35;97503.94;4951431;28;20118;-73
2024/03/16 12:09:03;;;;;;;7.00;5.15;;;;;;;22.12;39.09;97504.34;4934952;28;20499;-72
2024/03/16 12:11:40;;;;;;;9.95;5.55;;;;;;;20.93;41.26;97514.53;4951285;28;20046;-72
2024/03/16 12:14:17;;;;;;;8.23;5.30;;;;;;;21.22;41.38;97517.81;4951299;28;20035;-73
2024/03/16 12:16:51;;;;;;;7.53;5.50;;;;;;;21.87;40.85;97501.75;4934698;28;20047;-71
2024/03/16 12:19:17;;;;;;;5.50;4.07;;;;;;;23.34;38.58;97498.84;4951412;28;20475;-72
2024/03/16 12:21:58;;;;;;;6.43;4.25;;;;;;;24.95;35.69;97489.66;4952164;28;20042;-73
2024/03/16 12:24:35;;;;;;;6.22;4.20;;;;;;;25.61;35.17;97482.44;4951135;28;20031;-72
2024/03/16 12:27:07;;;;;;;30.90;15.82;;;;;;;25.49;34.78;97473.88;4950825;28;20368;-73
2024/03/16 12:29:38;;;;;;;8.88;5.40;;;;;;;24.21;36.54;97485.81;4951205;28;20082;-73